Time;durP1;ratioP1;P1;durP2;ratioP2;P2;SDS_P1;SDS_P2;PMS_P1;PMS_P2;Temp;Humidity;BMP_temperature;BMP_pressure;BME280_temperature;BME280_humidity;BME280_pressure;Samples;Min_cycle;Max_cycle;Signal;HPM_P1;HPM_P2
2023/09/22 00:00:05;;;;;;;;;0.00;0.00;;;;;14.96;77.37;99348.41;5065425;27;45306;-78
2023/09/22 00:02:30;;;;;;;;;0.00;0.00;;;;;14.92;77.30;99350.53;5058001;28;45322;-80
2023/09/22 00:04:56;;;;;;;;;0.00;0.00;;;;;14.73;77.26;99324.66;5057923;28;45426;-81
2023/09/22 00:07:21;;;;;;;;;0.00;0.00;;;;;14.69;77.83;99317.88;5062047;28;46161;-81
2023/09/22 00:09:47;;;;;;;;;0.00;0.00;;;;;14.75;77.95;99338.72;5068238;28;48120;-81
2023/09/22 00:12:12;;;;;;;;;2.00;0.00;;;;;14.75;78.20;99344.09;5057646;28;45342;-80
2023/09/22 00:14:37;;;;;;;;;2.00;0.00;;;;;14.80;77.63;99356.19;5057389;28;45275;-81
2023/09/22 00:17:03;;;;;;;;;0.67;0.67;;;;;14.78;77.81;99358.16;5057331;28;46174;-80
2023/09/22 00:19:28;;;;;;;;;0.00;0.00;;;;;14.67;78.04;99335.06;5063008;28;45395;-79
2023/09/22 00:21:55;;;;;;;;;0.00;0.00;;;;;14.67;78.16;99343.94;5077010;27;45229;-80
2023/09/22 00:24:21;;;;;;;;;2.33;1.00;;;;;14.59;78.83;99333.13;5081439;27;45389;-81
2023/09/22 00:26:46;;;;;;;;;1.00;0.00;;;;;14.62;78.73;99348.03;5081954;27;45379;-81
2023/09/22 00:29:12;;;;;;;;;1.33;1.00;;;;;14.60;78.74;99355.38;5077975;27;45470;-80
2023/09/22 00:31:37;;;;;;;;;0.67;0.00;;;;;14.47;78.57;99334.25;5061833;28;45479;-81
2023/09/22 00:34:03;;;;;;;;;0.00;0.00;;;;;14.57;78.79;99355.63;5061058;28;45896;-81
2023/09/22 00:36:28;;;;;;;;;0.00;0.00;;;;;14.55;79.06;99361.13;5061347;28;53564;-79
2023/09/22 00:38:53;;;;;;;;;0.00;0.00;;;;;14.60;78.87;99361.56;5060902;28;45343;-79
2023/09/22 00:41:19;;;;;;;;;0.00;0.00;;;;;14.60;78.54;99358.88;5081955;27;45498;-81
2023/09/22 00:43:44;;;;;;;;;0.00;0.00;;;;;14.61;78.52;99362.41;5082888;27;45376;-79
2023/09/22 00:46:12;;;;;;;;;0.00;0.00;;;;;14.59;77.70;99353.69;5085305;28;61952;-79
2023/09/22 00:48:40;;;;;;;;;0.00;0.00;;;;;14.53;78.15;99346.22;5086372;27;45415;-80
2023/09/22 00:51:06;;;;;;;;;2.00;0.00;;;;;14.61;78.06;99362.41;5076409;27;45251;-80
2023/09/22 00:53:34;;;;;;;;;0.00;0.00;;;;;14.61;77.65;99365.09;5086231;27;45242;-81
2023/09/22 00:56:01;;;;;;;;;1.00;0.67;;;;;14.65;77.69;99361.97;5084955;27;45488;-79
2023/09/22 00:58:26;;;;;;;;;0.33;0.00;;;;;14.57;77.03;99344.94;5084183;27;45463;-80
2023/09/22 01:00:53;;;;;;;;;0.67;0.67;;;;;14.70;76.35;99361.53;5074729;28;45396;-79
2023/09/22 01:03:19;;;;;;;;;3.33;1.00;;;;;14.77;76.16;99351.97;5061355;28;45389;-83
2023/09/22 01:05:46;;;;;;;;;2.00;0.00;;;;;14.75;75.73;99346.75;5060675;28;45897;-80
2023/09/22 01:08:12;;;;;;;;;0.00;0.00;;;;;14.79;75.41;99349.16;5066179;28;45341;-79
2023/09/22 01:10:43;;;;;;;;;0.00;0.00;;;;;14.85;74.71;99362.81;5063735;27;45282;-79
2023/09/22 01:13:09;;;;;;;;;0.00;0.00;;;;;14.88;75.12;99364.34;5066438;28;45477;-80
2023/09/22 01:15:36;;;;;;;;;0.33;0.00;;;;;14.92;75.06;99371.09;5079357;27;45334;-80
2023/09/22 01:18:04;;;;;;;;;0.00;0.00;;;;;14.91;74.73;99362.22;5080614;27;45234;-80
2023/09/22 01:20:29;;;;;;;;;0.00;0.00;;;;;14.93;74.10;99362.09;5069616;28;45369;-83
2023/09/22 01:22:55;;;;;;;;;2.00;0.00;;;;;14.89;74.66;99350.81;5081356;27;45377;-84
2023/09/22 01:25:20;;;;;;;;;1.00;0.00;;;;;14.95;74.42;99358.25;5081254;28;45434;-80
2023/09/22 01:27:45;;;;;;;;;0.67;0.67;;;;;14.89;74.03;99337.44;5081715;28;45960;-81
2023/09/22 01:30:11;;;;;;;;;1.00;0.00;;;;;14.99;73.95;99353.50;5081750;28;45360;-81
2023/09/22 01:32:37;;;;;;;;;2.00;0.00;;;;;14.93;73.56;99341.50;5062777;28;45248;-88
2023/09/22 01:35:04;;;;;;;;;3.00;0.00;;;;;14.99;73.73;99340.09;5062144;28;46700;-81
2023/09/22 01:37:34;;;;;;;;;1.33;1.00;;;;;14.92;73.78;99329.13;5080954;28;45328;-80
2023/09/22 01:40:00;;;;;;;;;1.00;1.00;;;;;14.92;73.18;99337.16;5079425;27;45381;-78
2023/09/22 01:42:26;;;;;;;;;0.33;0.00;;;;;14.81;73.42;99317.72;5062539;28;45451;-81
2023/09/22 01:44:51;;;;;;;;;0.00;0.00;;;;;14.83;72.78;99329.97;5060536;28;45443;-82
2023/09/22 01:47:17;;;;;;;;;0.33;0.00;;;;;14.95;73.38;99346.72;5060629;28;45396;-79
2023/09/22 01:49:42;;;;;;;;;0.00;0.00;;;;;14.95;73.24;99350.25;5069734;28;45517;-83
2023/09/22 01:52:08;;;;;;;;;2.00;0.00;;;;;14.97;72.98;99352.75;5080530;27;45629;-79
2023/09/22 01:54:33;;;;;;;;;0.00;0.00;;;;;14.90;73.38;99340.97;5080593;28;45386;-79
2023/09/22 01:56:58;;;;;;;;;1.00;0.00;;;;;15.01;72.82;99356.88;5061591;27;45264;-79
2023/09/22 01:59:24;;;;;;;;;0.67;0.67;;;;;15.01;73.13;99355.03;5059771;28;45540;-79
2023/09/22 02:01:49;;;;;;;;;0.00;0.00;;;;;15.02;72.13;99358.56;5072908;28;45604;-80
2023/09/22 02:04:14;;;;;;;;;1.00;1.00;;;;;14.95;72.20;99350.25;5080408;28;64417;-81
2023/09/22 02:06:39;;;;;;;;;2.00;0.00;;;;;14.94;72.60;99351.22;5081528;28;61689;-80
2023/09/22 02:09:05;;;;;;;;;0.00;0.00;;;;;14.96;72.84;99351.91;5082581;28;45363;-80
2023/09/22 02:11:31;;;;;;;;;0.00;0.00;;;;;15.00;72.64;99355.19;5076131;27;45360;-79
2023/09/22 02:13:57;;;;;;;;;0.00;0.00;;;;;14.94;72.61;99353.06;5080588;28;45586;-80
2023/09/22 02:16:22;;;;;;;;;0.00;0.00;;;;;14.99;72.86;99356.16;5080385;28;45286;-81
2023/09/22 02:18:47;;;;;;;;;0.00;0.00;;;;;14.87;72.82;99338.56;5079545;28;45343;-80
2023/09/22 02:21:14;;;;;;;;;1.00;1.00;;;;;14.86;72.86;99345.75;5094052;27;45583;-81
2023/09/22 02:23:39;;;;;;;;;2.00;0.67;;;;;14.84;72.99;99353.06;5058691;27;46285;-81
2023/09/22 02:26:06;;;;;;;;;0.00;0.00;;;;;14.94;72.71;99369.13;5058769;28;45352;-79
2023/09/22 02:28:32;;;;;;;;;0.00;0.00;;;;;14.90;72.69;99357.03;5060075;28;45412;-79
2023/09/22 02:30:57;;;;;;;;;1.33;0.00;;;;;14.91;73.10;99364.91;5064877;28;45471;-80
2023/09/22 02:33:22;;;;;;;;;0.00;0.00;;;;;14.88;72.88;99359.84;5080127;28;49586;-83
2023/09/22 02:35:48;;;;;;;;;0.00;0.00;;;;;14.76;73.25;99344.94;5079366;28;45500;-81
2023/09/22 02:38:13;;;;;;;;;1.33;0.00;;;;;14.81;73.27;99357.88;5080295;27;45832;-79
2023/09/22 02:40:38;;;;;;;;;1.00;0.00;;;;;14.67;73.25;99357.31;5076594;27;46199;-81
2023/09/22 02:43:05;;;;;;;;;0.67;0.00;;;;;14.66;73.80;99371.69;5058173;28;58189;-80
2023/09/22 02:45:30;;;;;;;;;0.00;0.00;;;;;14.57;73.10;99367.19;5058117;28;45393;-79
2023/09/22 02:47:55;;;;;;;;;3.00;1.00;;;;;14.56;73.62;99378.88;5058813;28;45274;-80
2023/09/22 02:50:21;;;;;;;;;0.00;0.00;;;;;14.45;74.47;99377.19;5057176;28;45569;-80
2023/09/22 02:52:46;;;;;;;;;0.00;0.00;;;;;14.29;74.63;99342.09;5058635;28;45195;-80
2023/09/22 02:55:13;;;;;;;;;1.00;1.00;;;;;14.47;74.35;99387.75;5057892;28;45189;-79
2023/09/22 02:57:40;;;;;;;;;0.33;0.33;;;;;14.42;74.85;99371.22;5062987;28;45467;-85
2023/09/22 03:00:17;;;;;;;;;1.00;1.00;;;;;14.39;74.90;99375.03;5078759;27;45574;-78
2023/09/22 03:02:43;;;;;;;;;1.00;0.00;;;;;14.37;74.52;99376.16;5077596;27;45327;-80
2023/09/22 03:05:09;;;;;;;;;0.00;0.00;;;;;14.20;74.80;99348.28;5078660;27;45317;-81
2023/09/22 03:07:34;;;;;;;;;0.00;0.00;;;;;14.38;74.59;99376.03;5078634;27;45281;-80
2023/09/22 03:09:59;;;;;;;;;1.33;0.00;;;;;14.12;74.61;99353.47;5079617;28;45557;-81
2023/09/22 03:12:25;;;;;;;;;0.00;0.00;;;;;14.14;75.46;99371.06;5078848;28;64842;-80
2023/09/22 03:14:51;;;;;;;;;1.00;1.00;;;;;14.18;75.42;99375.13;5078825;28;45544;-79
2023/09/22 03:17:16;;;;;;;;;5.00;0.00;;;;;14.12;75.47;99357.00;5079122;27;45271;-80
2023/09/22 03:19:41;;;;;;;;;1.00;1.00;;;;;14.06;75.96;99357.56;5069728;27;45505;-79
2023/09/22 03:22:08;;;;;;;;;1.00;1.00;;;;;14.14;76.30;99372.91;5059680;28;55326;-79
2023/09/22 03:24:34;;;;;;;;;0.33;0.33;;;;;14.13;75.54;99372.03;5059396;28;63390;-79
2023/09/22 03:26:59;;;;;;;;;1.00;1.00;;;;;14.20;76.04;99363.50;5060500;28;45448;-79
2023/09/22 03:29:24;;;;;;;;;0.67;0.67;;;;;14.15;75.93;99370.06;5068421;28;45400;-80
2023/09/22 03:31:50;;;;;;;;;0.67;0.00;;;;;14.17;76.00;99370.78;5080137;28;47824;-78
2023/09/22 03:34:15;;;;;;;;;1.00;1.00;;;;;14.17;75.95;99365.44;5059575;28;45461;-79
2023/09/22 03:36:41;;;;;;;;;0.33;0.33;;;;;14.16;75.07;99370.91;5060165;28;45918;-80
2023/09/22 03:39:12;;;;;;;;;1.67;1.00;;;;;14.05;75.51;99371.88;5064102;28;45433;-80
2023/09/22 03:41:37;;;;;;;;;3.00;1.00;;;;;13.98;74.98;99359.22;5061242;28;45484;-79
2023/09/22 03:44:04;;;;;;;;;0.00;0.00;;;;;14.00;75.38;99366.13;5058763;28;48014;-79
2023/09/22 03:46:29;;;;;;;;;1.00;1.00;;;;;13.97;75.93;99369.06;5078024;27;45344;-79
2023/09/22 03:48:56;;;;;;;;;0.00;0.00;;;;;13.89;76.18;99368.91;5078071;28;45584;-80
2023/09/22 03:51:21;;;;;;;;;1.00;1.00;;;;;13.84;75.92;99373.81;5077407;28;45385;-81
2023/09/22 03:53:47;;;;;;;;;1.00;1.00;;;;;13.75;76.55;99366.59;5072878;28;45885;-79
2023/09/22 03:56:12;;;;;;;;;3.00;0.00;;;;;13.67;76.79;99350.41;5057322;28;45382;-79
2023/09/22 03:58:37;;;;;;;;;1.00;1.00;;;;;13.57;77.03;99337.88;5057527;28;45453;-85
2023/09/22 04:01:09;;;;;;;;;0.00;0.00;;;;;13.52;77.02;99324.06;5065190;28;52808;-81
2023/09/22 04:03:35;;;;;;;;;0.00;0.00;;;;;13.47;77.82;99331.66;5079167;28;45400;-81
2023/09/22 04:06:02;;;;;;;;;2.00;0.00;;;;;13.57;78.10;99353.91;5078687;27;45429;-81
2023/09/22 04:08:27;;;;;;;;;1.00;1.00;;;;;13.47;78.16;99353.00;5079068;27;45513;-80
2023/09/22 04:10:52;;;;;;;;;1.00;1.00;;;;;13.61;77.85;99365.16;5076800;27;45281;-79
2023/09/22 04:13:18;;;;;;;;;0.00;0.00;;;;;13.55;78.38;99363.88;5076974;28;48325;-80
2023/09/22 04:15:44;;;;;;;;;0.00;0.00;;;;;13.52;78.93;99357.94;5077310;27;45355;-79
2023/09/22 04:18:10;;;;;;;;;2.00;2.00;;;;;13.47;79.00;99360.19;5060814;27;45246;-79
2023/09/22 04:20:37;;;;;;;;;1.00;1.00;;;;;13.31;79.16;99339.31;5060925;28;45342;-79
2023/09/22 04:23:04;;;;;;;;;1.00;1.00;;;;;13.34;79.56;99349.72;5075432;28;45269;-80
2023/09/22 04:25:34;;;;;;;;;3.00;1.00;;;;;13.37;80.13;99349.44;5076937;27;45304;-78
2023/09/22 04:28:09;;;;;;;;;1.00;1.00;;;;;13.39;79.90;99341.31;5076831;27;45238;-78
2023/09/22 04:30:38;;;;;;;;;2.00;2.00;;;;;13.44;80.16;99353.28;5072460;27;45965;-79
2023/09/22 04:33:05;;;;;;;;;3.67;1.33;;;;;13.40;80.14;99343.84;5056348;28;45434;-79
2023/09/22 04:35:32;;;;;;;;;1.67;1.00;;;;;13.49;80.20;99340.38;5071778;28;45402;-80
2023/09/22 04:37:59;;;;;;;;;2.00;1.67;;;;;13.51;79.90;99353.59;5056356;28;45477;-79
2023/09/22 04:40:24;;;;;;;;;4.00;3.00;;;;;13.22;80.80;99308.06;5056994;28;45292;-79
2023/09/22 04:42:51;;;;;;;;;1.33;1.33;;;;;13.40;81.00;99325.13;5076820;27;45361;-78
2023/09/22 04:45:21;;;;;;;;;1.00;1.00;;;;;13.47;80.81;99346.81;5078581;28;45321;-80
2023/09/22 04:47:53;;;;;;;;;4.67;2.00;;;;;13.47;80.49;99349.50;5079744;27;45470;-81
2023/09/22 04:50:19;;;;;;;;;2.00;2.00;;;;;13.45;80.63;99352.31;5078700;27;46116;-78
2023/09/22 04:52:45;;;;;;;;;5.00;2.67;;;;;13.42;80.75;99357.94;5078348;27;45509;-79
2023/09/22 04:55:11;;;;;;;;;2.33;1.33;;;;;13.38;80.55;99360.97;5080179;27;45413;-81
2023/09/22 04:57:36;;;;;;;;;2.00;2.00;;;;;13.37;81.42;99357.47;5084713;27;45017;-79
2023/09/22 05:00:07;;;;;;;;;3.67;2.00;;;;;13.37;81.38;99349.44;5100202;27;46859;-83
2023/09/22 05:02:33;;;;;;;;;1.00;1.00;;;;;13.38;81.99;99367.16;5069758;28;45259;-79
2023/09/22 05:04:59;;;;;;;;;4.00;2.00;;;;;13.25;81.19;99339.84;5061111;28;45298;-82
2023/09/22 05:07:27;;;;;;;;;3.33;3.00;;;;;13.44;81.29;99363.97;5061555;28;45516;-81
2023/09/22 05:09:53;;;;;;;;;3.33;3.00;;;;;13.36;80.90;99342.41;5067097;28;45437;-82
2023/09/22 05:12:18;;;;;;;;;4.33;3.33;;;;;13.40;80.63;99353.66;5075981;28;45796;-80
2023/09/22 05:14:43;;;;;;;;;6.33;3.33;;;;;13.43;80.84;99358.78;5059680;28;45444;-81
2023/09/22 05:17:09;;;;;;;;;4.67;3.00;;;;;13.39;81.19;99352.81;5060220;28;45408;-81
2023/09/22 05:19:34;;;;;;;;;2.00;2.00;;;;;13.25;81.09;99332.66;5060484;28;45307;-79
2023/09/22 05:22:00;;;;;;;;;2.67;1.67;;;;;13.31;80.93;99343.81;5058585;28;45282;-80
2023/09/22 05:24:26;;;;;;;;;5.00;4.00;;;;;13.26;80.44;99342.38;5060101;28;45334;-81
2023/09/22 05:26:51;;;;;;;;;2.00;2.00;;;;;13.40;80.74;99359.84;5059851;28;45610;-81
2023/09/22 05:29:17;;;;;;;;;1.67;1.67;;;;;13.38;81.04;99359.16;5078203;28;45631;-81
2023/09/22 05:31:42;;;;;;;;;2.00;0.67;;;;;13.43;80.82;99356.09;5086275;27;62418;-82
2023/09/22 05:34:07;;;;;;;;;4.67;1.33;;;;;13.40;80.90;99354.53;5101162;27;45389;-83
2023/09/22 05:36:34;;;;;;;;;1.00;1.00;;;;;13.46;80.69;99353.16;5086260;27;44811;-80
2023/09/22 05:39:02;;;;;;;;;2.00;2.00;;;;;13.56;80.60;99362.91;5080956;27;45563;-81
2023/09/22 05:41:28;;;;;;;;;1.00;1.00;;;;;13.61;80.70;99362.47;5080112;28;44810;-80
2023/09/22 05:43:56;;;;;;;;;1.00;1.00;;;;;13.56;80.60;99340.69;5070734;28;45306;-82
2023/09/22 05:46:22;;;;;;;;;3.33;1.00;;;;;13.63;79.78;99349.00;5064519;28;45390;-81
2023/09/22 05:48:47;;;;;;;;;2.00;2.00;;;;;13.51;80.47;99325.03;5076970;28;45384;-85
2023/09/22 05:51:13;;;;;;;;;2.33;2.00;;;;;13.62;80.03;99344.63;5081136;27;45334;-85
2023/09/22 05:53:39;;;;;;;;;1.00;1.00;;;;;13.63;80.52;99335.63;5075205;28;45430;-79
2023/09/22 05:56:10;;;;;;;;;2.33;1.67;;;;;13.73;79.89;99348.03;5066093;28;45248;-83
2023/09/22 05:58:37;;;;;;;;;2.67;2.33;;;;;13.78;80.00;99353.81;5064998;28;46151;-88
2023/09/22 06:01:10;;;;;;;;;2.00;2.00;;;;;13.74;80.75;99355.06;5074829;28;45403;-81
2023/09/22 06:03:39;;;;;;;;;5.00;2.00;;;;;13.81;80.22;99347.38;5071394;28;45435;-78
2023/09/22 06:06:06;;;;;;;;;4.67;3.67;;;;;13.84;80.45;99352.44;5060737;28;45491;-84
2023/09/22 06:08:31;;;;;;;;;1.00;1.00;;;;;13.76;80.48;99322.88;5072466;28;48033;-82
2023/09/22 06:10:59;;;;;;;;;1.00;1.00;;;;;13.90;80.35;99351.88;5079198;28;45329;-82
2023/09/22 06:13:24;;;;;;;;;3.00;2.00;;;;;13.91;80.74;99348.22;5067447;27;45271;-80
2023/09/22 06:15:51;;;;;;;;;3.67;2.00;;;;;13.93;80.36;99350.75;5069672;28;45299;-81
2023/09/22 06:18:18;;;;;;;;;4.33;3.00;;;;;13.94;80.24;99347.97;5066284;27;46108;-82
2023/09/22 06:20:44;;;;;;;;;1.67;1.00;;;;;13.95;80.42;99351.47;5063464;28;45451;-80
2023/09/22 06:23:10;;;;;;;;;3.00;1.00;;;;;13.85;80.99;99354.13;5070817;28;45358;-85
2023/09/22 06:25:35;;;;;;;;;2.00;2.00;;;;;13.74;81.99;99332.84;5086487;28;45571;-81
2023/09/22 06:28:02;;;;;;;;;4.00;4.00;;;;;13.79;84.65;99355.50;5086741;27;45419;-80
2023/09/22 06:30:30;;;;;;;;;5.00;3.67;;;;;13.78;84.18;99364.50;5090319;27;45415;-80
2023/09/22 06:32:56;;;;;;;;;3.67;2.67;;;;;13.67;85.34;99348.59;5088342;27;45287;-79
2023/09/22 06:35:22;;;;;;;;;4.67;3.67;;;;;13.66;85.28;99349.56;5086924;27;45318;-79
2023/09/22 06:37:49;;;;;;;;;0.00;0.00;;;;;13.68;86.25;99370.81;5087916;27;46389;-79
2023/09/22 06:40:16;;;;;;;;;3.00;1.67;;;;;13.63;87.08;99367.69;5079872;28;45417;-79
2023/09/22 06:42:44;;;;;;;;;1.00;1.00;;;;;13.57;87.18;99372.59;5068613;28;45423;-87
2023/09/22 06:45:10;;;;;;;;;2.00;2.00;;;;;13.55;86.83;99363.88;5081004;28;45338;-89
2023/09/22 06:47:43;;;;;;;;;4.00;2.00;;;;;13.54;88.18;99364.88;5088036;28;46166;-82
2023/09/22 06:50:11;;;;;;;;;1.67;1.67;;;;;13.50;88.53;99354.56;5087386;28;44907;-80
2023/09/22 06:52:37;;;;;;;;;2.00;2.00;;;;;13.48;87.82;99352.03;5083455;28;45402;-79
2023/09/22 06:55:03;;;;;;;;;3.00;2.00;;;;;13.50;87.96;99355.41;5073094;28;45585;-82
2023/09/22 06:57:29;;;;;;;;;1.67;1.67;;;;;13.42;87.79;99352.59;5086401;28;45423;-81
2023/09/22 06:59:55;;;;;;;;;2.00;2.00;;;;;13.55;87.91;99357.69;5083918;28;45470;-79
2023/09/22 07:02:21;;;;;;;;;4.00;2.67;;;;;13.57;88.07;99361.06;5085638;27;45306;-78
2023/09/22 07:04:47;;;;;;;;;1.00;1.00;;;;;13.62;87.78;99357.97;5084885;28;45457;-82
2023/09/22 07:07:13;;;;;;;;;2.67;2.00;;;;;13.56;87.88;99354.88;5090362;28;45401;-83
2023/09/22 07:09:43;;;;;;;;;2.00;2.00;;;;;13.59;88.25;99367.13;5095304;27;45256;-85
2023/09/22 07:12:08;;;;;;;;;3.33;2.00;;;;;13.58;88.94;99360.09;5083050;28;44697;-80
2023/09/22 07:14:33;;;;;;;;;1.33;1.33;;;;;13.55;89.45;99361.22;5078327;28;45239;-81
2023/09/22 07:17:00;;;;;;;;;1.67;1.67;;;;;13.54;89.58;99370.22;5062820;28;47018;-80
2023/09/22 07:19:25;;;;;;;;;2.00;2.00;;;;;13.57;89.96;99363.75;5079952;28;45480;-81
2023/09/22 07:21:51;;;;;;;;;2.00;2.00;;;;;13.46;89.46;99337.97;5072817;28;45260;-78
2023/09/22 07:24:17;;;;;;;;;2.33;2.00;;;;;13.57;89.71;99366.41;5069069;28;45327;-82
2023/09/22 07:26:42;;;;;;;;;5.00;3.00;;;;;13.53;91.39;99343.59;5063915;28;46575;-78
2023/09/22 07:29:07;;;;;;;;;2.00;2.00;;;;;13.57;90.89;99356.56;5060225;28;45339;-78
2023/09/22 07:31:33;;;;;;;;;3.33;3.00;;;;;13.34;91.30;99301.66;5059831;28;54533;-79
2023/09/22 07:33:58;;;;;;;;;2.00;2.00;;;;;13.69;90.10;99335.09;5058665;28;45357;-80
2023/09/22 07:36:26;;;;;;;;;2.33;2.33;;;;;13.73;90.56;99336.50;5071050;28;45488;-81
2023/09/22 07:38:53;;;;;;;;;1.00;1.00;;;;;13.71;90.23;99336.66;5079805;28;45674;-83
2023/09/22 07:41:19;;;;;;;;;2.33;2.33;;;;;13.88;91.01;99354.69;5066556;27;45310;-79
2023/09/22 07:43:45;;;;;;;;;3.67;3.00;;;;;13.88;90.58;99337.81;5086586;28;45493;-81
2023/09/22 07:46:11;;;;;;;;;3.00;1.33;;;;;13.90;90.29;99330.50;5065699;28;45350;-80
2023/09/22 07:48:37;;;;;;;;;1.67;1.67;;;;;14.08;89.46;99355.59;5073646;27;44887;-80
2023/09/22 07:51:04;;;;;;;;;0.00;0.00;;;;;14.02;89.76;99333.91;5060994;28;45333;-82
2023/09/22 07:53:30;;;;;;;;;1.33;1.33;;;;;14.09;88.91;99346.59;5063109;28;45357;-83
2023/09/22 07:55:59;;;;;;;;;2.67;2.67;;;;;13.98;88.69;99308.44;5081056;28;47481;-79
2023/09/22 07:58:25;;;;;;;;;2.67;2.00;;;;;14.13;89.04;99348.00;5081077;28;45445;-85
2023/09/22 08:00:51;;;;;;;;;4.00;2.00;;;;;14.00;89.09;99307.31;5081893;28;45449;-79
2023/09/22 08:03:18;;;;;;;;;5.00;3.33;;;;;14.23;89.08;99342.66;5079464;28;45389;-81
2023/09/22 08:05:44;;;;;;;;;0.67;0.00;;;;;14.18;88.72;99356.44;5065095;28;46022;-80
2023/09/22 08:08:10;;;;;;;;;1.00;1.00;;;;;14.11;89.07;99344.63;5083533;28;45349;-79
2023/09/22 08:10:38;;;;;;;;;2.33;2.33;;;;;13.95;90.62;99328.28;5064759;28;45312;-80
2023/09/22 08:13:07;;;;;;;;;2.00;2.00;;;;;14.04;90.39;99334.59;5081663;28;45353;-80
2023/09/22 08:15:33;;;;;;;;;1.00;1.00;;;;;14.00;91.21;99342.06;5065791;28;45622;-79
2023/09/22 08:17:58;;;;;;;;;2.67;2.00;;;;;14.06;90.78;99346.00;5055683;28;45719;-82
2023/09/22 08:20:23;;;;;;;;;1.00;1.00;;;;;14.01;90.99;99365.13;5056269;27;45736;-82
2023/09/22 08:22:49;;;;;;;;;2.00;2.00;;;;;13.92;95.08;99376.63;5063054;28;45659;-80
2023/09/22 08:25:14;;;;;;;;;4.00;1.00;;;;;13.72;96.31;99353.53;5080014;28;45831;-80
2023/09/22 08:27:40;;;;;;;;;1.00;1.00;;;;;13.64;97.13;99367.56;5076628;28;45449;-83
2023/09/22 08:30:11;;;;;;;;;1.00;0.00;;;;;13.42;97.16;99333.88;5076944;28;45533;-79
2023/09/22 08:32:41;;;;;;;;;0.00;0.00;;;;;13.50;97.78;99373.25;5079921;27;45526;-81
2023/09/22 08:35:15;;;;;;;;;1.33;1.00;;;;;13.54;98.47;99382.69;5075413;28;46359;-83
2023/09/22 08:37:42;;;;;;;;;0.00;0.00;;;;;13.63;97.58;99370.38;5079538;28;45394;-88
2023/09/22 08:40:14;;;;;;;;;1.00;1.00;;;;;13.77;95.95;99378.84;5084129;27;45394;-85
2023/09/22 08:42:41;;;;;;;;;0.00;0.00;;;;;13.65;93.38;99347.03;5081160;27;45829;-81
2023/09/22 08:45:06;;;;;;;;;0.00;0.00;;;;;13.78;92.55;99369.00;5066252;28;45541;-84
2023/09/22 08:47:39;;;;;;;;;0.00;0.00;;;;;13.85;92.42;99378.19;5064508;28;45453;-79
2023/09/22 08:50:12;;;;;;;;;0.00;0.00;;;;;13.87;93.95;99371.72;5064302;28;45518;-83
2023/09/22 08:52:42;;;;;;;;;0.00;0.00;;;;;13.93;92.83;99378.31;5079457;28;45519;-84
2023/09/22 08:55:16;;;;;;;;;1.00;1.00;;;;;13.96;93.03;99367.38;5082963;27;46034;-87
2023/09/22 08:57:46;;;;;;;;;2.00;0.33;;;;;14.01;92.58;99370.47;5086148;27;45212;-85
2023/09/22 09:00:18;;;;;;;;;0.00;0.00;;;;;14.04;91.09;99370.19;5086305;27;45402;-80
2023/09/22 09:02:44;;;;;;;;;0.00;0.00;;;;;14.04;91.89;99372.03;5068267;27;45491;-82
2023/09/22 09:05:22;;;;;;;;;1.00;0.00;;;;;14.13;90.22;99365.84;5081650;28;45496;-80
2023/09/22 09:07:48;;;;;;;;;0.00;0.00;;;;;14.20;90.11;99368.84;5063393;28;45371;-80
2023/09/22 09:10:25;;;;;;;;;0.33;0.00;;;;;14.25;89.41;99366.59;5075667;28;45319;-79
2023/09/22 09:12:50;;;;;;;;;0.00;0.00;;;;;14.29;89.43;99359.97;5062188;28;45989;-84
2023/09/22 09:15:15;;;;;;;;;0.00;0.00;;;;;14.41;88.45;99346.31;5067060;28;47396;-79
2023/09/22 09:17:41;;;;;;;;;0.00;0.00;;;;;14.53;87.50;99360.44;5081964;27;45293;-80
2023/09/22 09:20:07;;;;;;;;;0.00;0.00;;;;;14.61;85.98;99360.56;5080132;28;45695;-80
2023/09/22 09:22:37;;;;;;;;;0.67;0.67;;;;;14.74;85.57;99363.81;5082454;27;45436;-80
2023/09/22 09:25:02;;;;;;;;;0.00;0.00;;;;;14.69;85.27;99360.69;5079040;27;47341;-81
2023/09/22 09:27:28;;;;;;;;;0.00;0.00;;;;;14.85;85.97;99370.00;5078956;28;45401;-81
2023/09/22 09:29:54;;;;;;;;;0.00;0.00;;;;;14.89;84.90;99366.03;5079051;28;45561;-80
2023/09/22 09:32:27;;;;;;;;;2.00;0.00;;;;;14.94;85.59;99347.69;5082650;27;45670;-79
2023/09/22 09:34:53;;;;;;;;;0.00;0.00;;;;;15.18;84.26;99363.28;5076370;28;47281;-81
2023/09/22 09:37:20;;;;;;;;;1.00;1.00;;;;;15.28;82.21;99378.34;5069951;28;45476;-79
2023/09/22 09:39:48;;;;;;;;;0.33;0.33;;;;;15.38;82.99;99377.50;5057994;28;45459;-80
2023/09/22 09:42:17;;;;;;;;;2.00;0.67;;;;;15.47;83.61;99355.16;5062115;28;45421;-80
2023/09/22 09:44:49;;;;;;;;;2.00;2.00;;;;;15.56;81.13;99339.03;5059380;28;45738;-79
2023/09/22 09:47:35;;;;;;;;;0.00;0.00;;;;;15.95;78.89;99354.97;5058736;28;45464;-80
2023/09/22 09:50:04;;;;;;;;;0.00;0.00;;;;;16.21;75.47;99398.00;5058359;28;45813;-79
2023/09/22 09:52:37;;;;;;;;;1.67;0.00;;;;;16.25;75.03;99398.53;5058475;28;45519;-81
2023/09/22 09:55:11;;;;;;;;;0.67;0.67;;;;;16.26;73.09;99373.38;5059020;28;45452;-83
2023/09/22 09:57:42;;;;;;;;;1.00;1.00;;;;;16.36;73.56;99396.47;5060238;28;45471;-80
2023/09/22 10:00:19;;;;;;;;;0.33;0.33;;;;;16.14;73.89;99359.34;5059672;28;45388;-84
2023/09/22 10:02:46;;;;;;;;;2.00;0.00;;;;;16.57;73.70;99403.41;5059590;28;45432;-83
2023/09/22 10:05:21;;;;;;;;;0.00;0.00;;;;;16.74;72.51;99394.53;5059348;28;45420;-82
2023/09/22 10:07:48;;;;;;;;;1.67;1.00;;;;;16.88;72.08;99388.59;5059942;28;45427;-82
2023/09/22 10:10:16;;;;;;;;;0.00;0.00;;;;;17.22;71.66;99398.59;5064779;28;45460;-82
2023/09/22 10:12:43;;;;;;;;;1.00;1.00;;;;;17.22;70.22;99399.44;5058492;28;45321;-84
2023/09/22 10:15:10;;;;;;;;;1.33;1.33;;;;;17.35;70.84;99421.38;5064286;28;45515;-82
2023/09/22 10:17:36;;;;;;;;;3.00;3.00;;;;;17.37;70.09;99434.66;5063753;28;45549;-82
2023/09/22 10:20:10;;;;;;;;;2.00;1.00;;;;;17.07;67.65;99431.41;5070729;27;45555;-81
2023/09/22 10:22:36;;;;;;;;;4.00;1.33;;;;;17.03;67.22;99459.56;5059108;28;45412;-82
2023/09/22 10:25:13;;;;;;;;;0.67;0.67;;;;;16.93;68.09;99468.72;5057205;28;45428;-82
2023/09/22 10:28:01;;;;;;;;;1.00;1.00;;;;;16.77;67.67;99482.81;5071338;28;45472;-79
2023/09/22 10:30:49;;;;;;;;;0.00;0.00;;;;;16.41;66.98;99490.81;5057963;28;45375;-81
2023/09/22 10:33:26;;;;;;;;;0.00;0.00;;;;;16.34;68.93;99489.69;5048862;28;45378;-83
2023/09/22 10:35:55;;;;;;;;;1.00;1.00;;;;;16.67;67.98;99506.19;5059256;28;45596;-80
2023/09/22 10:38:21;;;;;;;;;4.67;2.33;;;;;17.25;68.01;99493.16;5066439;28;45377;-83
2023/09/22 10:40:58;;;;;;;;;1.00;1.00;;;;;17.81;67.18;99493.75;5073754;28;45506;-82
2023/09/22 10:43:24;;;;;;;;;1.00;1.00;;;;;18.34;63.78;99488.16;5057791;28;45584;-86
2023/09/22 10:45:51;;;;;;;;;1.00;1.00;;;;;18.48;61.07;99500.97;5058833;28;45263;-82
2023/09/22 10:48:18;;;;;;;;;1.00;1.00;;;;;18.43;61.77;99489.03;5059294;28;45358;-84
2023/09/22 10:50:49;;;;;;;;;4.33;3.00;;;;;18.34;61.22;99498.91;5058262;28;45394;-84
2023/09/22 10:53:15;;;;;;;;;2.00;2.00;;;;;18.16;61.56;99506.25;5057778;28;45389;-85
2023/09/22 10:55:42;;;;;;;;;1.33;1.33;;;;;17.95;61.11;99506.63;5056626;28;45489;-84
2023/09/22 10:58:12;;;;;;;;;2.00;2.00;;;;;17.86;62.30;99526.44;5059661;28;45390;-88
2023/09/22 11:00:40;;;;;;;;;2.00;1.00;;;;;17.79;61.26;99530.75;5076007;28;45512;-79
2023/09/22 11:03:13;;;;;;;;;1.00;1.00;;;;;17.89;62.68;99539.56;5076756;28;45435;-83
2023/09/22 11:05:39;;;;;;;;;2.00;0.67;;;;;18.21;63.71;99531.66;5077970;28;45385;-85
2023/09/22 11:08:12;;;;;;;;;0.67;0.67;;;;;18.68;61.44;99536.59;5077114;28;45380;-87
2023/09/22 11:10:38;;;;;;;;;6.67;5.67;;;;;19.29;60.40;99527.31;5075618;28;45418;-82
2023/09/22 11:13:03;;;;;;;;;1.67;1.67;;;;;20.01;57.30;99522.88;5075715;28;45659;-82
2023/09/22 11:15:29;;;;;;;;;1.00;1.00;;;;;20.70;57.08;99538.50;5075701;27;45400;-84
2023/09/22 11:17:54;;;;;;;;;2.00;1.00;;;;;21.14;53.60;99525.25;5075424;27;45466;-80
2023/09/22 11:20:28;;;;;;;;;1.67;0.67;;;;;21.42;52.16;99560.72;5076028;28;45575;-82
2023/09/22 11:22:55;;;;;;;;;1.00;1.00;;;;;21.31;53.69;99556.59;5078982;27;45454;-83
2023/09/22 11:25:22;;;;;;;;;2.33;2.33;;;;;20.86;51.82;99550.09;5074527;28;47134;-83
2023/09/22 11:27:49;;;;;;;;;1.67;1.67;;;;;20.49;52.50;99564.28;5075746;27;45378;-83
2023/09/22 11:30:25;;;;;;;;;2.00;2.00;;;;;20.09;53.85;99537.38;5075922;27;45506;-81
2023/09/22 11:32:50;;;;;;;;;1.00;1.00;;;;;20.16;53.47;99570.72;5076350;27;45479;-82